createdAt,value
2023-01-12T00:02:22.861Z,16.05
2023-01-12T00:04:49.467Z,16.15
2023-01-12T00:07:17.714Z,15.76
2023-01-12T00:09:44.284Z,15.61
2023-01-12T00:12:23.645Z,15.53
2023-01-12T00:15:07.195Z,16.21
2023-01-12T00:17:49.302Z,16.70
2023-01-12T00:20:26.054Z,15.89
2023-01-12T00:23:03.775Z,16.23
2023-01-12T00:25:57.590Z,16.34
2023-01-12T00:31:50.039Z,16.00
2023-01-12T00:34:29.837Z,16.06
2023-01-12T00:37:09.475Z,15.80
2023-01-12T00:39:53.301Z,16.30
2023-01-12T00:42:55.126Z,16.32
2023-01-12T00:45:26.263Z,17.16
2023-01-12T00:47:57.371Z,17.87
2023-01-12T00:50:31.759Z,17.55
2023-01-12T00:52:59.363Z,17.42
2023-01-12T00:55:36.936Z,17.34
2023-01-12T00:58:04.544Z,17.59
2023-01-12T01:00:40.580Z,17.40
2023-01-12T01:03:17.153Z,17.25
2023-01-12T01:05:44.458Z,17.05
2023-01-12T01:08:20.985Z,16.87
2023-01-12T01:10:50.862Z,16.83
2023-01-12T01:13:25.842Z,17.56
2023-01-12T01:16:05.787Z,17.32
2023-01-12T01:18:38.408Z,17.20
2023-01-12T01:21:08.927Z,18.10
2023-01-12T01:23:39.696Z,17.00
2023-01-12T01:26:15.450Z,17.59
2023-01-12T01:29:00.189Z,17.43
2023-01-12T01:31:35.654Z,18.21
2023-01-12T01:34:16.039Z,17.85
2023-01-12T01:36:49.980Z,17.65
2023-01-12T01:39:24.741Z,17.67
2023-01-12T01:42:03.981Z,17.88
2023-01-12T01:44:39.027Z,17.61
2023-01-12T01:47:34.180Z,17.60
2023-01-12T01:53:50.835Z,17.40
2023-01-12T01:57:15.369Z,17.78
2023-01-12T02:03:57.042Z,17.34
2023-01-12T02:10:31.569Z,17.17
2023-01-12T02:13:56.272Z,17.67
2023-01-12T02:21:10.404Z,17.41
2023-01-12T02:24:30.819Z,17.82
2023-01-12T02:27:34.844Z,17.49
2023-01-12T02:30:43.718Z,17.57
2023-01-12T02:33:47.403Z,18.16
2023-01-12T02:36:53.765Z,17.75
2023-01-12T02:43:27.664Z,17.42
2023-01-12T02:46:18.947Z,17.67
2023-01-12T02:52:25.525Z,17.92
2023-01-12T02:55:07.595Z,18.36
2023-01-12T02:57:48.424Z,17.94
2023-01-12T03:00:22.455Z,17.52
2023-01-12T03:03:13.878Z,17.92
2023-01-12T03:06:28.038Z,18.13
2023-01-12T03:08:58.879Z,18.53
2023-01-12T03:11:46.451Z,17.67
2023-01-12T03:14:49.135Z,17.63
2023-01-12T03:18:11.198Z,18.09
2023-01-12T03:21:10.677Z,18.15
2023-01-12T03:23:52.061Z,18.40
2023-01-12T03:26:26.668Z,18.86
2023-01-12T03:29:29.862Z,19.23
2023-01-12T03:32:33.895Z,18.23
2023-01-12T03:35:05.131Z,17.83
2023-01-12T03:37:52.284Z,18.26
2023-01-12T03:40:46.823Z,18.43
2023-01-12T03:43:37.360Z,18.37
2023-01-12T03:47:04.929Z,18.11
2023-01-12T03:54:05.965Z,18.31
2023-01-12T03:56:55.956Z,18.69
2023-01-12T03:59:45.549Z,18.72
2023-01-12T04:02:26.008Z,18.01
2023-01-12T04:05:14.169Z,18.02
2023-01-12T04:08:00.963Z,18.50
2023-01-12T04:13:34.923Z,18.02
2023-01-12T04:16:14.876Z,18.24
2023-01-12T04:19:08.656Z,18.42
2023-01-12T04:22:02.883Z,19.00
2023-01-12T04:24:50.900Z,18.35
2023-01-12T04:27:48.077Z,17.46
2023-01-12T04:30:34.552Z,17.62
2023-01-12T04:47:03.961Z,18.36
2023-01-12T04:49:49.943Z,17.74
2023-01-12T04:52:25.826Z,18.55
2023-01-12T04:55:27.180Z,17.62
2023-01-12T05:01:39.500Z,18.41
2023-01-12T05:07:08.737Z,17.93
2023-01-12T05:10:01.561Z,17.59
2023-01-12T05:12:45.107Z,17.82
2023-01-12T05:15:21.100Z,18.19
2023-01-12T05:18:09.364Z,17.85
2023-01-12T05:20:52.013Z,18.00
2023-01-12T05:23:48.368Z,18.58
2023-01-12T05:26:56.531Z,18.53
2023-01-12T05:29:42.070Z,17.55
2023-01-12T05:32:31.411Z,17.97
2023-01-12T05:35:22.251Z,18.23
2023-01-12T05:38:22.611Z,17.60
2023-01-12T05:41:33.224Z,17.91
2023-01-12T05:44:12.819Z,17.82
2023-01-12T05:46:58.074Z,18.21
2023-01-12T05:49:42.512Z,18.01
2023-01-12T05:52:49.407Z,17.62
2023-01-12T05:55:38.576Z,18.12
2023-01-12T06:01:51.505Z,17.59
2023-01-12T06:04:39.321Z,17.79
2023-01-12T06:08:05.374Z,17.33
2023-01-12T06:11:03.705Z,18.11
2023-01-12T06:14:07.861Z,17.53
2023-01-12T06:16:52.877Z,17.95
2023-01-12T06:19:48.933Z,17.86
2023-01-12T06:22:38.575Z,17.81
2023-01-12T06:25:50.323Z,17.43
2023-01-12T06:31:33.602Z,18.10
2023-01-12T06:34:27.475Z,18.24
2023-01-12T06:40:40.574Z,17.65
2023-01-12T06:44:06.154Z,18.04
2023-01-12T06:47:08.132Z,18.50
2023-01-12T06:49:43.562Z,18.04
2023-01-12T06:52:34.442Z,17.67
2023-01-12T06:58:16.874Z,18.15
2023-01-12T07:01:12.473Z,17.93
2023-01-12T07:03:58.667Z,17.42
2023-01-12T07:07:05.114Z,17.80
2023-01-12T07:09:49.520Z,18.13
2023-01-12T07:12:30.913Z,17.84
2023-01-12T07:15:14.436Z,17.95
2023-01-12T07:18:11.255Z,17.47
2023-01-12T07:20:47.233Z,17.29
2023-01-12T07:23:33.444Z,17.76
2023-01-12T07:26:08.906Z,17.20
2023-01-12T07:28:49.599Z,17.66
2023-01-12T07:31:22.095Z,17.74
2023-01-12T07:33:57.580Z,17.82
2023-01-12T07:36:28.450Z,18.00
2023-01-12T07:38:59.254Z,18.46
2023-01-12T07:41:44.930Z,17.14
2023-01-12T07:44:13.203Z,17.60
2023-01-12T07:46:43.054Z,17.12
2023-01-12T07:49:12.928Z,17.06
2023-01-12T07:51:40.562Z,17.07
2023-01-12T07:54:08.075Z,17.24
2023-01-12T07:56:34.948Z,17.29
2023-01-12T07:59:02.191Z,17.34
2023-01-12T08:01:32.433Z,16.70
2023-01-12T08:04:01.788Z,17.19
2023-01-12T08:06:34.108Z,17.07
2023-01-12T08:09:07.172Z,16.40
2023-01-12T08:11:39.394Z,16.60
2023-01-12T08:14:14.485Z,17.14
2023-01-12T08:16:48.980Z,16.62
2023-01-12T08:19:25.701Z,16.27
2023-01-12T08:21:59.997Z,16.73
2023-01-12T08:24:43.300Z,16.50
2023-01-12T08:27:13.032Z,16.40
2023-01-12T08:29:48.128Z,16.46
2023-01-12T08:32:21.669Z,15.86
2023-01-12T08:34:56.136Z,16.18
2023-01-12T08:37:29.221Z,16.31
2023-01-12T08:40:02.032Z,16.39
2023-01-12T08:42:48.344Z,17.16
2023-01-12T08:45:50.607Z,17.44
2023-01-12T08:48:26.263Z,16.56
2023-01-12T08:51:04.175Z,16.59
2023-01-12T08:53:44.479Z,16.77
2023-01-12T08:56:29.107Z,16.81
2023-01-12T08:59:07.375Z,16.79
2023-01-12T09:01:51.466Z,17.14
2023-01-12T09:04:29.145Z,16.61
2023-01-12T09:07:14.850Z,16.38
2023-01-12T09:09:54.674Z,16.82
2023-01-12T09:12:40.683Z,16.80
2023-01-12T09:15:19.501Z,16.71
2023-01-12T09:18:07.407Z,16.88
2023-01-12T09:20:56.734Z,17.39
2023-01-12T09:23:44.265Z,17.29
2023-01-12T09:26:30.285Z,17.28
2023-01-12T09:29:16.860Z,17.10
2023-01-12T09:31:59.082Z,17.09
2023-01-12T09:34:47.867Z,16.47
2023-01-12T09:37:24.178Z,17.68
2023-01-12T09:40:03.654Z,17.20
2023-01-12T09:47:10.127Z,17.80
2023-01-12T09:50:08.013Z,17.54
2023-01-12T09:53:06.869Z,17.76
2023-01-12T09:55:54.481Z,17.25
2023-01-12T09:59:12.241Z,17.17
2023-01-12T10:01:47.326Z,17.14
2023-01-12T10:04:26.481Z,17.60
2023-01-12T10:07:10.233Z,17.41
2023-01-12T10:09:54.445Z,17.89
2023-01-12T10:12:37.407Z,18.13
2023-01-12T10:16:07.454Z,17.69
2023-01-12T10:18:50.565Z,17.50
2023-01-12T10:21:26.656Z,17.81
2023-01-12T10:24:08.219Z,18.30
2023-01-12T10:26:44.772Z,17.57
2023-01-12T10:29:21.891Z,18.00
2023-01-12T10:32:04.600Z,18.55
2023-01-12T10:34:55.646Z,18.51
2023-01-12T10:37:36.198Z,18.50
2023-01-12T10:40:09.418Z,18.52
2023-01-12T10:43:19.588Z,18.87
2023-01-12T10:46:16.178Z,18.89
2023-01-12T10:49:00.649Z,17.87
2023-01-12T10:51:45.369Z,18.15
2023-01-12T10:54:27.167Z,18.67
2023-01-12T10:57:21.811Z,19.23
2023-01-12T11:00:03.101Z,18.86
2023-01-12T11:02:54.932Z,19.12
2023-01-12T11:05:38.218Z,19.50
2023-01-12T11:08:39.244Z,18.14
2023-01-12T11:11:30.800Z,18.49
2023-01-12T11:14:28.624Z,18.55
2023-01-12T11:17:26.579Z,18.85
2023-01-12T11:20:20.773Z,18.67
2023-01-12T11:23:07.403Z,19.06
2023-01-12T11:25:47.841Z,19.86
2023-01-12T11:28:48.199Z,19.27
2023-01-12T11:31:37.956Z,19.35
2023-01-12T11:34:44.893Z,19.24
2023-01-12T11:38:17.128Z,19.01
2023-01-12T11:40:57.739Z,18.87
2023-01-12T11:44:08.861Z,19.59
2023-01-12T11:47:03.463Z,19.88
2023-01-12T11:49:59.746Z,18.96
2023-01-12T11:52:33.122Z,19.89
2023-01-12T11:55:19.380Z,19.54
2023-01-12T11:58:15.205Z,19.46
2023-01-12T12:01:25.380Z,19.48
2023-01-12T12:04:17.681Z,19.22
2023-01-12T12:07:06.528Z,19.33
2023-01-12T12:09:58.971Z,19.95
2023-01-12T12:12:52.413Z,19.97
2023-01-12T12:15:49.166Z,20.24
2023-01-12T12:18:47.673Z,20.37
2023-01-12T12:21:44.532Z,20.27
2023-01-12T12:25:17.556Z,19.73
2023-01-12T12:28:15.683Z,20.35
2023-01-12T12:31:26.797Z,20.40
2023-01-12T12:34:27.957Z,19.93
2023-01-12T12:37:27.070Z,20.12
2023-01-12T12:40:56.960Z,20.11
2023-01-12T12:43:56.979Z,20.13
2023-01-12T12:46:58.542Z,20.72
2023-01-12T12:49:40.441Z,19.89
2023-01-12T12:52:21.563Z,20.36
2023-01-12T12:55:01.879Z,21.02
2023-01-12T12:57:34.837Z,20.77
2023-01-12T13:00:05.485Z,20.91
2023-01-12T13:03:01.569Z,20.82
2023-01-12T13:06:11.761Z,21.21
2023-01-12T13:08:41.415Z,21.05
2023-01-12T13:11:08.408Z,20.56
2023-01-12T13:13:57.924Z,21.12
2023-01-12T13:16:26.500Z,20.99
2023-01-12T13:18:53.385Z,21.54
2023-01-12T13:21:26.787Z,21.11
2023-01-12T13:23:55.150Z,20.93
2023-01-12T13:26:36.696Z,20.52
2023-01-12T13:29:24.190Z,20.26
2023-01-12T13:31:59.772Z,20.86
2023-01-12T13:34:42.387Z,20.88
2023-01-12T13:37:38.836Z,21.23
2023-01-12T13:40:08.676Z,21.74
2023-01-12T13:42:57.456Z,21.06
2023-01-12T13:45:28.570Z,20.55
2023-01-12T13:47:59.599Z,20.66
2023-01-12T13:50:31.654Z,20.57
2023-01-12T13:53:06.134Z,20.88
2023-01-12T13:55:38.320Z,19.91
2023-01-12T13:58:20.544Z,19.01
2023-01-12T14:01:17.212Z,19.17
2023-01-12T14:04:16.311Z,19.25
2023-01-12T14:07:01.751Z,18.99
2023-01-12T14:09:47.146Z,19.94
2023-01-12T14:13:00.201Z,19.63
2023-01-12T14:15:46.448Z,19.95
2023-01-12T14:18:23.183Z,19.71
2023-01-12T14:21:06.479Z,20.19
2023-01-12T14:23:51.957Z,19.79
2023-01-12T14:26:32.320Z,20.40
2023-01-12T14:29:02.696Z,19.93
2023-01-12T14:31:48.642Z,19.94
2023-01-12T14:34:33.454Z,19.48
2023-01-12T14:37:23.451Z,19.48
2023-01-12T14:39:56.618Z,19.23
2023-01-12T14:42:50.194Z,19.17
2023-01-12T14:45:52.405Z,20.57
2023-01-12T14:48:32.784Z,21.08
2023-01-12T14:51:29.290Z,19.97
2023-01-12T14:54:12.167Z,20.00
2023-01-12T14:59:50.207Z,20.07
2023-01-12T15:05:42.210Z,19.99
2023-01-12T15:08:19.319Z,20.29
2023-01-12T15:10:58.610Z,20.53
2023-01-12T15:13:38.849Z,20.55
2023-01-12T15:16:33.867Z,19.97
2023-01-12T15:19:26.939Z,20.53
2023-01-12T15:22:24.360Z,20.07
2023-01-12T15:25:23.531Z,20.66
2023-01-12T15:31:33.190Z,20.01
2023-01-12T15:34:16.819Z,19.65
2023-01-12T15:37:00.978Z,20.01
2023-01-12T15:39:41.472Z,19.42
2023-01-12T15:42:30.364Z,20.08
2023-01-12T15:48:41.837Z,19.94
2023-01-12T15:51:44.634Z,20.58
2023-01-12T15:54:26.412Z,20.83
2023-01-12T15:56:59.828Z,20.64
2023-01-12T15:59:31.649Z,20.54
2023-01-12T16:02:21.691Z,20.72
2023-01-12T16:04:54.994Z,20.55
2023-01-12T16:07:34.735Z,19.99
2023-01-12T16:10:08.976Z,19.51
2023-01-12T16:12:50.822Z,18.26
2023-01-12T16:15:33.367Z,19.72
2023-01-12T16:18:03.290Z,19.78
2023-01-12T16:20:44.588Z,19.48
2023-01-12T16:23:20.494Z,19.75
2023-01-12T16:26:06.863Z,19.26
2023-01-12T16:28:46.427Z,19.51
2023-01-12T16:31:40.408Z,20.18
2023-01-12T16:34:20.218Z,20.79
2023-01-12T16:37:00.549Z,20.56
2023-01-12T16:39:37.263Z,20.00
2023-01-12T16:42:16.194Z,20.63
2023-01-12T16:44:55.583Z,20.59
2023-01-12T16:47:26.599Z,20.79
2023-01-12T16:50:00.446Z,20.10
2023-01-12T16:52:44.903Z,20.77
2023-01-12T16:55:33.775Z,20.60
2023-01-12T16:58:15.534Z,20.87
2023-01-12T17:00:49.943Z,21.06
2023-01-12T17:03:25.136Z,19.40
2023-01-12T17:06:04.563Z,20.14
2023-01-12T17:08:44.793Z,20.22
2023-01-12T17:11:28.106Z,20.58
2023-01-12T17:14:29.999Z,20.72
2023-01-12T17:17:05.135Z,20.51
2023-01-12T17:19:41.283Z,20.43
2023-01-12T17:22:13.418Z,20.18
2023-01-12T17:24:41.687Z,20.14
2023-01-12T17:27:12.434Z,20.98
2023-01-12T17:29:45.304Z,21.02
2023-01-12T17:32:16.236Z,20.42
2023-01-12T17:34:48.598Z,21.00
2023-01-12T17:37:16.926Z,21.23
2023-01-12T17:39:44.368Z,20.63
2023-01-12T17:42:35.713Z,20.62
2023-01-12T17:45:03.860Z,20.22
2023-01-12T17:47:33.614Z,20.60
2023-01-12T17:50:02.276Z,20.90
2023-01-12T17:52:34.698Z,19.52
2023-01-12T17:55:05.910Z,19.27
2023-01-12T17:57:33.154Z,18.96
2023-01-12T18:00:02.976Z,19.52
2023-01-12T18:02:39.598Z,19.27
2023-01-12T18:05:06.775Z,20.02
2023-01-12T18:07:35.848Z,20.17
2023-01-12T18:10:02.709Z,20.61
2023-01-12T18:12:30.230Z,20.19
2023-01-12T18:14:57.304Z,20.42
2023-01-12T18:17:29.864Z,19.86
2023-01-12T18:19:59.312Z,19.63
2023-01-12T18:22:26.992Z,19.97
2023-01-12T18:24:54.216Z,20.29
2023-01-12T18:27:21.861Z,20.22
2023-01-12T18:29:49.543Z,20.31
2023-01-12T18:32:17.230Z,20.48
2023-01-12T18:34:47.404Z,20.35
2023-01-12T18:37:15.153Z,19.97
2023-01-12T18:39:44.379Z,20.08
2023-01-12T18:42:30.371Z,20.25
2023-01-12T18:45:02.236Z,20.41
2023-01-12T18:47:48.497Z,20.36
2023-01-12T18:50:34.786Z,20.35
2023-01-12T18:53:20.961Z,19.87
2023-01-12T18:55:48.317Z,19.86
2023-01-12T18:58:15.368Z,20.31
2023-01-12T19:00:42.266Z,20.29
2023-01-12T19:03:09.340Z,20.27
2023-01-12T19:05:53.678Z,19.96
2023-01-12T19:08:40.060Z,20.32
2023-01-12T19:11:09.121Z,20.11
2023-01-12T19:13:54.232Z,20.37
2023-01-12T19:16:40.181Z,20.85
2023-01-12T19:19:08.123Z,20.40
2023-01-12T19:21:54.391Z,20.78
2023-01-12T19:24:39.976Z,20.39
2023-01-12T19:27:25.550Z,20.36
2023-01-12T19:29:52.538Z,19.75
2023-01-12T19:32:20.201Z,19.54
2023-01-12T19:34:47.423Z,19.68
2023-01-12T19:37:15.700Z,20.32
2023-01-12T19:39:59.631Z,20.64
2023-01-12T19:42:51.092Z,20.00
2023-01-12T19:45:18.505Z,20.35
2023-01-12T19:47:45.539Z,20.21
2023-01-12T19:50:14.296Z,19.95
2023-01-12T19:52:43.459Z,19.55
2023-01-12T19:55:13.086Z,20.32
2023-01-12T19:57:41.431Z,19.40
2023-01-12T20:00:16.510Z,20.01
2023-01-12T20:02:46.522Z,20.45
2023-01-12T20:05:17.445Z,19.89
2023-01-12T20:07:48.318Z,19.46
2023-01-12T20:10:18.450Z,19.40
2023-01-12T20:12:45.421Z,20.01
2023-01-12T20:15:17.064Z,19.87
2023-01-12T20:17:46.056Z,20.25
2023-01-12T20:20:13.341Z,20.20
2023-01-12T20:22:42.149Z,20.10
2023-01-12T20:25:09.811Z,19.94
2023-01-12T20:27:41.130Z,20.27
2023-01-12T20:30:14.217Z,20.58
2023-01-12T20:32:46.628Z,20.37
2023-01-12T20:35:17.828Z,19.97
2023-01-12T20:37:45.460Z,19.79
2023-01-12T20:40:14.107Z,20.24
2023-01-12T20:43:02.859Z,20.34
2023-01-12T20:45:35.683Z,19.91
2023-01-12T20:48:19.093Z,20.61
2023-01-12T20:50:51.578Z,21.00
2023-01-12T20:53:35.399Z,20.94
2023-01-12T20:56:28.375Z,20.96
2023-01-12T20:59:25.653Z,21.03
2023-01-12T21:02:29.707Z,21.58
2023-01-12T21:05:24.880Z,21.87
2023-01-12T21:08:14.959Z,20.71
2023-01-12T21:10:53.952Z,20.87
2023-01-12T21:13:48.728Z,20.59
2023-01-12T21:16:35.957Z,20.51
2023-01-12T21:19:18.216Z,20.65
2023-01-12T21:21:46.491Z,20.91
2023-01-12T21:24:25.945Z,21.12
2023-01-12T21:27:10.754Z,21.25
2023-01-12T21:29:49.288Z,21.00
2023-01-12T21:32:27.660Z,20.89
2023-01-12T21:34:56.852Z,21.05
2023-01-12T21:37:24.857Z,20.66
2023-01-12T21:39:53.655Z,20.53
2023-01-12T21:42:57.828Z,20.76
2023-01-12T21:45:50.330Z,21.46
2023-01-12T21:48:20.501Z,21.77
2023-01-12T21:51:08.285Z,21.06
2023-01-12T21:53:45.280Z,21.18
2023-01-12T21:56:30.731Z,21.69
2023-01-12T21:59:10.857Z,21.33
2023-01-12T22:01:38.009Z,20.79
2023-01-12T22:04:05.302Z,21.00
2023-01-12T22:06:36.093Z,21.18
2023-01-12T22:09:03.547Z,20.62
2023-01-12T22:11:33.182Z,20.88
2023-01-12T22:14:09.413Z,21.13
2023-01-12T22:16:37.075Z,21.04
2023-01-12T22:19:08.128Z,20.87
2023-01-12T22:21:36.083Z,21.26
2023-01-12T22:24:04.063Z,21.18
2023-01-12T22:26:32.912Z,20.79
2023-01-12T22:29:07.283Z,20.42
2023-01-12T22:31:50.206Z,20.48
2023-01-12T22:34:21.539Z,20.64
2023-01-12T22:36:53.426Z,20.45
2023-01-12T22:39:23.215Z,21.02
2023-01-12T22:41:51.222Z,20.78
2023-01-12T22:44:28.920Z,21.05
2023-01-12T22:47:03.492Z,20.98
2023-01-12T22:49:35.590Z,21.17
2023-01-12T22:52:13.776Z,20.45
2023-01-12T22:54:43.943Z,21.05
2023-01-12T22:57:10.696Z,20.77
2023-01-12T22:59:37.339Z,21.00
2023-01-12T23:02:24.863Z,20.75
2023-01-12T23:04:52.813Z,20.62
2023-01-12T23:07:26.109Z,20.51
2023-01-12T23:10:00.073Z,20.92
2023-01-12T23:12:29.897Z,20.93
2023-01-12T23:15:05.577Z,21.24
2023-01-12T23:17:36.396Z,20.64
2023-01-12T23:20:09.313Z,20.41
2023-01-12T23:22:53.504Z,20.56
2023-01-12T23:25:29.831Z,20.28
2023-01-12T23:28:10.321Z,20.19
2023-01-12T23:30:41.240Z,21.12
2023-01-12T23:33:25.170Z,20.86
2023-01-12T23:35:52.330Z,20.81
2023-01-12T23:38:19.231Z,21.00
2023-01-12T23:40:46.464Z,21.23
2023-01-12T23:43:16.582Z,20.54
2023-01-12T23:45:43.612Z,20.27
2023-01-12T23:48:10.873Z,20.76
2023-01-12T23:50:40.543Z,21.01
2023-01-12T23:53:10.460Z,20.41
2023-01-12T23:55:39.746Z,20.27
2023-01-12T23:58:06.735Z,20.28
